Time;durP1;ratioP1;P1;durP2;ratioP2;P2;SDS_P1;SDS_P2;PMS_P1;PMS_P2;Temp;Humidity;BMP_temperature;BMP_pressure;BME280_temperature;BME280_humidity;BME280_pressure;Samples;Min_cycle;Max_cycle;Signal;HPM_P1;HPM_P2
2022/06/09 00:00:35;;;;;;;3.17;1.02;;;10.90;92.20;;;;;;5028826;28;20040;-69
2022/06/09 00:03:09;;;;;;;1.33;0.95;;;11.00;92.30;;;;;;5026338;28;20473;-69
2022/06/09 00:05:38;;;;;;;3.17;0.88;;;11.20;91.80;;;;;;5034262;28;20073;-68
2022/06/09 00:08:06;;;;;;;2.28;1.00;;;11.10;91.60;;;;;;5038802;28;20072;-68
2022/06/09 00:10:44;;;;;;;2.35;1.23;;;11.30;91.40;;;;;;5049771;28;20029;-67
2022/06/09 00:13:12;;;;;;;4.50;1.15;;;11.40;91.50;;;;;;5033985;28;20108;-67
2022/06/09 00:15:40;;;;;;;1.90;0.90;;;11.40;91.40;;;;;;5034418;28;20437;-67
2022/06/09 00:18:10;;;;;;;2.53;1.00;;;11.40;91.60;;;;;;5032777;28;20025;-68
2022/06/09 00:20:37;;;;;;;3.75;0.98;;;11.50;91.40;;;;;;5036254;28;20022;-68
2022/06/09 00:23:05;;;;;;;2.40;0.98;;;11.50;91.40;;;;;;5052997;28;20376;-65
2022/06/09 00:25:35;;;;;;;2.95;1.17;;;11.60;91.70;;;;;;5052093;28;20027;-70
2022/06/09 00:28:03;;;;;;;4.45;1.10;;;11.60;91.40;;;;;;5053482;28;20032;-71
2022/06/09 00:30:34;;;;;;;4.28;1.00;;;11.80;91.30;;;;;;5038786;28;20044;-71
2022/06/09 00:33:01;;;;;;;2.63;1.08;;;11.80;91.40;;;;;;5042481;28;20111;-71
2022/06/09 00:35:29;;;;;;;3.67;1.00;;;11.90;91.50;;;;;;5066626;28;20040;-67
2022/06/09 00:37:56;;;;;;;3.20;1.20;;;12.00;91.30;;;;;;5044822;28;20055;-69
2022/06/09 00:40:24;;;;;;;2.17;1.08;;;12.10;90.80;;;;;;5033638;28;20033;-66
2022/06/09 00:42:52;;;;;;;3.35;0.98;;;12.20;90.80;;;;;;5035184;28;20113;-70
2022/06/09 00:45:37;;;;;;;1.40;0.80;;;12.30;90.60;;;;;;5052610;28;20712;-71
2022/06/09 00:48:25;;;;;;;0.85;0.63;;;12.40;90.40;;;;;;5052188;28;20049;-66
2022/06/09 00:51:15;;;;;;;3.53;0.55;;;12.50;87.80;;;;;;5046429;28;20025;-69
2022/06/09 00:53:44;;;;;;;0.75;0.47;;;12.60;86.90;;;;;;5040602;28;20102;-69
2022/06/09 00:56:14;;;;;;;0.77;0.50;;;12.80;87.20;;;;;;5052199;28;20035;-73
2022/06/09 00:58:45;;;;;;;1.23;0.50;;;12.80;86.30;;;;;;5040480;28;20033;-72
2022/06/09 01:01:15;;;;;;;1.80;0.47;;;12.90;85.60;;;;;;5028053;28;20040;-65
2022/06/09 01:03:59;;;;;;;0.43;0.40;;;13.10;84.90;;;;;;5033706;28;20022;-68
2022/06/09 01:06:36;;;;;;;2.03;0.40;;;13.30;85.20;;;;;;5026953;28;20445;-69
2022/06/09 01:09:09;;;;;;;1.58;0.50;;;13.30;84.50;;;;;;5032794;28;20026;-70
2022/06/09 01:11:37;;;;;;;1.13;0.60;;;13.40;85.50;;;;;;5032275;28;20028;-71
2022/06/09 01:14:06;;;;;;;2.72;0.50;;;13.40;84.10;;;;;;5036335;28;20033;-67
2022/06/09 01:17:09;;;;;;;0.40;0.30;;;13.50;83.80;;;;;;5051954;28;20115;-67
2022/06/09 01:19:51;;;;;;;3.60;0.75;;;13.60;83.30;;;;;;5051941;28;20461;-66
2022/06/09 01:22:39;;;;;;;0.53;0.50;;;13.60;82.90;;;;;;5032352;28;20088;-67
2022/06/09 01:25:46;;;;;;;2.22;0.40;;;13.70;81.90;;;;;;5031945;28;20026;-68
2022/06/09 01:28:50;;;;;;;0.40;0.40;;;13.80;82.10;;;;;;5011963;28;20108;-72
2022/06/09 01:31:39;;;;;;;1.38;0.52;;;13.80;81.80;;;;;;5032472;28;20100;-72
2022/06/09 01:34:24;;;;;;;0.77;0.38;;;13.90;82.60;;;;;;5051988;28;20017;-70
2022/06/09 01:37:00;;;;;;;2.33;0.40;;;14.00;81.90;;;;;;5046187;28;20037;-67
2022/06/09 01:39:30;;;;;;;0.40;0.40;;;14.00;81.50;;;;;;5047242;28;20025;-68
2022/06/09 01:41:57;;;;;;;0.50;0.50;;;14.20;81.50;;;;;;5035352;28;20083;-69
2022/06/09 01:44:25;;;;;;;1.15;0.55;;;14.20;81.40;;;;;;5050798;28;20112;-67
2022/06/09 01:46:54;;;;;;;2.08;0.40;;;14.20;80.40;;;;;;5045182;28;20104;-73
2022/06/09 01:49:27;;;;;;;0.80;0.50;;;14.30;80.60;;;;;;5011518;28;20080;-71
2022/06/09 01:51:55;;;;;;;2.83;0.60;;;14.50;80.60;;;;;;5026638;28;20018;-72
2022/06/09 01:54:32;;;;;;;1.50;0.38;;;14.60;79.70;;;;;;5049795;28;20060;-70
2022/06/09 01:57:36;;;;;;;0.63;0.50;;;14.80;80.10;;;;;;5051509;28;20503;-72
2022/06/09 02:00:15;;;;;;;2.25;0.40;;;14.90;79.70;;;;;;5042123;28;20041;-70
2022/06/09 02:03:06;;;;;;;2.78;1.08;;;15.00;78.70;;;;;;5030947;28;20040;-69
2022/06/09 02:05:41;;;;;;;0.95;0.50;;;15.20;79.00;;;;;;5037969;28;20054;-65
2022/06/09 02:08:11;;;;;;;1.35;0.55;;;15.20;78.60;;;;;;5051227;28;20159;-66
2022/06/09 02:10:41;;;;;;;1.67;0.45;;;15.30;78.40;;;;;;5033563;28;20017;-70
2022/06/09 02:13:15;;;;;;;0.63;0.50;;;15.40;77.30;;;;;;5030582;28;20484;-67
2022/06/09 02:15:47;;;;;;;0.50;0.40;;;15.40;77.70;;;;;;5044935;28;20556;-69
2022/06/09 02:18:19;;;;;;;1.90;0.75;;;15.40;77.40;;;;;;5029947;28;20204;-68
2022/06/09 02:21:06;;;;;;;0.68;0.63;;;15.40;77.60;;;;;;5017640;28;20062;-71
2022/06/09 02:23:33;;;;;;;1.77;0.70;;;15.50;77.40;;;;;;5030534;28;20096;-69
2022/06/09 02:26:01;;;;;;;2.28;0.50;;;15.60;77.60;;;;;;5029679;28;20199;-69
2022/06/09 02:28:28;;;;;;;0.82;0.38;;;15.60;77.00;;;;;;5030485;28;20025;-68
2022/06/09 02:30:55;;;;;;;2.63;0.40;;;15.80;76.60;;;;;;5029826;28;20032;-66
2022/06/09 02:33:23;;;;;;;1.40;0.50;;;16.00;76.30;;;;;;5011036;28;20014;-67
2022/06/09 02:35:51;;;;;;;0.80;0.50;;;16.30;75.90;;;;;;5044201;28;20122;-65
2022/06/09 02:38:22;;;;;;;0.90;0.40;;;16.40;76.80;;;;;;5050478;28;20025;-68
2022/06/09 02:40:51;;;;;;;1.02;0.60;;;16.60;76.70;;;;;;5044402;28;20060;-68
2022/06/09 02:43:18;;;;;;;0.70;0.50;;;16.90;75.50;;;;;;5046099;28;20028;-67
2022/06/09 02:45:46;;;;;;;0.93;0.60;;;17.20;75.40;;;;;;5035982;28;20018;-64
2022/06/09 02:48:13;;;;;;;1.15;0.55;;;17.60;74.00;;;;;;5041685;28;20029;-66
2022/06/09 02:50:41;;;;;;;0.45;0.45;;;17.90;73.50;;;;;;5049736;28;20021;-68
2022/06/09 02:53:09;;;;;;;1.23;0.50;;;18.10;72.60;;;;;;5043429;28;20033;-70
2022/06/09 02:55:37;;;;;;;0.77;0.50;;;18.40;71.80;;;;;;5053042;28;20039;-67
2022/06/09 02:58:04;;;;;;;1.48;0.40;;;18.50;70.80;;;;;;5054029;28;20021;-64
2022/06/09 03:00:32;;;;;;;1.40;0.50;;;18.40;69.80;;;;;;5051158;28;20024;-69
2022/06/09 03:03:02;;;;;;;1.60;0.40;;;18.20;70.20;;;;;;5034974;28;20117;-72
2022/06/09 03:05:32;;;;;;;1.80;0.50;;;18.40;71.00;;;;;;5034769;28;20649;-69
2022/06/09 03:07:59;;;;;;;1.38;0.70;;;18.70;69.90;;;;;;5034082;28;20105;-73
2022/06/09 03:10:26;;;;;;;3.58;0.60;;;18.80;69.00;;;;;;5034062;28;20030;-71
2022/06/09 03:12:54;;;;;;;0.80;0.30;;;18.80;68.90;;;;;;5034300;28;20018;-70
2022/06/09 03:15:23;;;;;;;0.40;0.40;;;18.90;68.30;;;;;;5033945;28;20112;-67
2022/06/09 03:17:52;;;;;;;1.30;0.52;;;19.00;68.50;;;;;;5033188;28;20018;-68
2022/06/09 03:20:24;;;;;;;1.40;0.40;;;18.90;68.60;;;;;;5047018;28;20028;-67
2022/06/09 03:22:51;;;;;;;1.23;0.30;;;19.00;67.60;;;;;;5068689;28;20021;-72
2022/06/09 03:25:20;;;;;;;0.55;0.55;;;19.00;68.50;;;;;;5014771;28;20088;-66
2022/06/09 03:27:47;;;;;;;0.40;0.40;;;19.20;67.20;;;;;;5033329;28;20029;-65
2022/06/09 03:30:15;;;;;;;1.10;0.50;;;19.20;66.70;;;;;;5052717;28;20497;-68
2022/06/09 03:32:42;;;;;;;1.02;0.40;;;19.50;67.20;;;;;;5052965;28;20029;-70
2022/06/09 03:35:11;;;;;;;2.00;0.40;;;20.00;65.80;;;;;;5053695;28;20481;-74
2022/06/09 03:37:38;;;;;;;1.75;0.40;;;20.40;65.10;;;;;;5053639;28;20029;-74
2022/06/09 03:40:07;;;;;;;0.43;0.40;;;20.90;66.30;;;;;;5053541;28;20029;-75
2022/06/09 03:42:34;;;;;;;0.45;0.32;;;21.50;64.10;;;;;;5043576;28;20028;-71
2022/06/09 03:45:02;;;;;;;0.80;0.40;;;21.80;62.80;;;;;;5053599;28;20036;-76
2022/06/09 03:47:29;;;;;;;1.20;0.50;;;22.00;61.60;;;;;;5053581;28;20017;-73
2022/06/09 03:49:56;;;;;;;1.80;0.95;;;22.10;61.90;;;;;;5043378;28;20032;-67
2022/06/09 03:52:24;;;;;;;0.50;0.38;;;22.00;61.10;;;;;;5042054;28;20025;-68
2022/06/09 03:54:51;;;;;;;2.33;0.70;;;21.80;61.00;;;;;;5053107;28;20068;-76
2022/06/09 03:57:19;;;;;;;2.30;0.60;;;21.70;62.60;;;;;;5052628;28;20100;-67
2022/06/09 03:59:46;;;;;;;2.55;0.38;;;21.90;61.70;;;;;;5052256;28;20017;-74
2022/06/09 04:02:13;;;;;;;0.77;0.40;;;22.00;61.20;;;;;;5051935;28;20036;-69
2022/06/09 04:04:40;;;;;;;1.63;0.50;;;21.80;61.30;;;;;;5053297;28;20057;-68
2022/06/09 04:07:09;;;;;;;1.05;0.45;;;21.40;61.70;;;;;;5044455;28;20149;-69
2022/06/09 04:09:37;;;;;;;0.88;0.40;;;20.80;63.20;;;;;;5053475;28;20029;-67
2022/06/09 04:12:05;;;;;;;0.70;0.40;;;20.30;63.50;;;;;;5050816;28;20043;-70
2022/06/09 04:14:32;;;;;;;1.23;0.40;;;19.60;65.00;;;;;;5053655;28;20025;-70
2022/06/09 04:16:59;;;;;;;4.28;0.80;;;19.10;65.50;;;;;;5052934;28;20037;-67
2022/06/09 04:19:27;;;;;;;0.60;0.30;;;18.40;66.90;;;;;;5048024;28;20163;-71
2022/06/09 04:21:55;;;;;;;0.50;0.50;;;17.90;67.90;;;;;;5037631;28;20194;-72
2022/06/09 04:24:22;;;;;;;0.90;0.40;;;17.40;69.20;;;;;;5053317;28;20132;-69
2022/06/09 04:26:49;;;;;;;1.67;0.40;;;17.10;70.10;;;;;;5052925;28;20027;-66
2022/06/09 04:29:17;;;;;;;2.75;0.40;;;16.90;70.50;;;;;;5050753;28;20108;-67
2022/06/09 04:31:45;;;;;;;2.22;0.40;;;16.70;70.90;;;;;;5033407;28;20029;-67
2022/06/09 04:34:12;;;;;;;1.00;0.63;;;16.60;71.50;;;;;;5052769;28;20040;-67
2022/06/09 04:36:41;;;;;;;2.78;0.60;;;16.40;71.30;;;;;;5053057;28;20388;-67
2022/06/09 04:39:09;;;;;;;0.40;0.40;;;16.30;71.70;;;;;;5051769;28;20071;-69
2022/06/09 04:41:38;;;;;;;0.52;0.40;;;16.30;72.10;;;;;;5042037;28;20032;-69
2022/06/09 04:44:06;;;;;;;0.90;0.50;;;16.40;72.50;;;;;;5052746;28;20435;-68
2022/06/09 04:46:33;;;;;;;2.05;0.40;;;16.30;71.40;;;;;;5052616;28;20075;-72
2022/06/09 04:49:01;;;;;;;1.95;0.43;;;16.30;71.20;;;;;;5052300;28;20120;-75
2022/06/09 04:51:29;;;;;;;0.50;0.30;;;16.30;70.40;;;;;;5041159;28;20457;-72
2022/06/09 04:53:57;;;;;;;0.73;0.30;;;16.40;70.50;;;;;;5051486;28;20099;-67
2022/06/09 04:56:24;;;;;;;1.30;0.40;;;16.30;70.30;;;;;;5035176;28;20033;-70
2022/06/09 04:58:52;;;;;;;2.20;0.82;;;16.30;70.00;;;;;;5031085;28;20013;-73
2022/06/09 05:01:25;;;;;;;0.50;0.40;;;16.30;70.30;;;;;;5041539;28;21228;-70
2022/06/09 05:03:53;;;;;;;0.63;0.40;;;16.30;69.80;;;;;;5026467;28;20239;-67
2022/06/09 05:06:23;;;;;;;0.50;0.40;;;16.30;71.40;;;;;;5050492;28;20071;-70
2022/06/09 05:08:53;;;;;;;0.80;0.43;;;16.40;70.40;;;;;;5051037;28;20049;-70
2022/06/09 05:11:22;;;;;;;0.43;0.35;;;16.40;69.70;;;;;;5040701;28;20022;-66
2022/06/09 05:13:49;;;;;;;1.48;0.35;;;16.40;71.10;;;;;;5036446;28;20415;-68
2022/06/09 05:16:18;;;;;;;0.45;0.40;;;16.50;70.40;;;;;;5050878;28;20043;-68
2022/06/09 05:18:45;;;;;;;0.38;0.38;;;16.40;71.30;;;;;;5050677;28;20025;-65
2022/06/09 05:21:12;;;;;;;1.45;0.60;;;16.40;70.90;;;;;;5049428;28;20036;-70
2022/06/09 05:23:41;;;;;;;1.10;0.52;;;16.40;71.30;;;;;;5012318;28;20033;-69
2022/06/09 05:26:08;;;;;;;1.05;0.40;;;16.30;71.20;;;;;;5030494;28;20038;-67
2022/06/09 05:28:36;;;;;;;0.77;0.43;;;16.30;71.60;;;;;;5030235;28;20054;-73
2022/06/09 05:31:03;;;;;;;1.75;0.50;;;16.40;71.10;;;;;;5039997;28;20501;-73
2022/06/09 05:33:31;;;;;;;1.60;0.60;;;16.50;71.10;;;;;;5042019;28;20025;-70
2022/06/09 05:35:58;;;;;;;0.40;0.40;;;16.80;71.20;;;;;;5028942;28;20124;-69
2022/06/09 05:46:46;;;;;;;1.17;0.40;;;16.90;71.10;;;;;;5046416;28;20083;-68
2022/06/09 05:49:13;;;;;;;0.80;0.38;;;16.80;72.70;;;;;;5050518;28;20103;-68
2022/06/09 05:51:41;;;;;;;1.75;0.50;;;16.70;72.20;;;;;;5043484;28;20485;-67
2022/06/09 05:54:09;;;;;;;0.95;0.40;;;16.70;72.00;;;;;;5033674;28;20068;-68
2022/06/09 05:56:37;;;;;;;1.55;0.50;;;16.80;72.60;;;;;;5031518;28;20441;-69
2022/06/09 05:59:05;;;;;;;2.28;0.50;;;16.90;72.60;;;;;;5036158;28;20029;-69
2022/06/09 06:01:32;;;;;;;1.67;0.60;;;16.90;72.80;;;;;;5031057;28;20071;-68
2022/06/09 06:03:59;;;;;;;1.60;0.80;;;17.10;72.30;;;;;;5031216;28;20517;-73
2022/06/09 06:06:36;;;;;;;0.38;0.30;;;17.20;71.30;;;;;;5026558;28;20029;-72
2022/06/09 06:09:09;;;;;;;1.13;0.40;;;17.00;70.80;;;;;;5044031;28;20116;-67
2022/06/09 06:11:38;;;;;;;1.70;0.50;;;16.80;71.50;;;;;;5038321;28;20108;-66
2022/06/09 06:14:08;;;;;;;1.85;0.80;;;16.50;72.00;;;;;;5030942;28;20108;-67
2022/06/09 06:16:36;;;;;;;0.80;0.77;;;16.30;72.10;;;;;;5031194;28;20076;-75
2022/06/09 06:19:06;;;;;;;0.65;0.50;;;15.90;72.70;;;;;;5046399;28;20047;-68
2022/06/09 06:21:34;;;;;;;0.50;0.40;;;15.70;73.60;;;;;;5044884;28;20106;-67
2022/06/09 06:24:03;;;;;;;1.83;0.45;;;15.40;74.70;;;;;;5032772;28;20026;-68
2022/06/09 06:26:32;;;;;;;0.57;0.40;;;15.20;74.70;;;;;;5034823;28;20026;-69
2022/06/09 06:29:01;;;;;;;0.63;0.45;;;15.00;75.20;;;;;;5050263;28;20038;-69
2022/06/09 06:31:28;;;;;;;1.25;0.50;;;14.90;75.90;;;;;;5039134;28;20132;-70
2022/06/09 06:33:55;;;;;;;0.50;0.38;;;14.70;76.20;;;;;;5034465;28;20025;-67
2022/06/09 06:36:23;;;;;;;0.30;0.30;;;14.60;76.80;;;;;;5033105;28;20416;-68
2022/06/09 06:38:50;;;;;;;2.17;0.43;;;14.40;76.80;;;;;;5033105;28;20028;-71
2022/06/09 06:41:18;;;;;;;1.58;0.52;;;14.30;77.00;;;;;;5035286;28;20462;-68
2022/06/09 06:43:48;;;;;;;1.35;0.50;;;14.20;77.50;;;;;;5032422;28;20024;-68
2022/06/09 06:46:16;;;;;;;1.05;0.70;;;14.20;78.30;;;;;;5047259;28;20033;-69
2022/06/09 06:48:45;;;;;;;2.90;1.35;;;14.00;78.80;;;;;;5035095;28;20018;-70
2022/06/09 06:51:13;;;;;;;1.25;0.70;;;13.90;78.80;;;;;;5033050;28;20033;-66
2022/06/09 06:53:40;;;;;;;2.63;1.60;;;13.90;79.30;;;;;;5033380;28;20050;-68
2022/06/09 06:56:09;;;;;;;2.17;1.20;;;13.80;79.60;;;;;;5043907;28;20037;-67
2022/06/09 06:58:37;;;;;;;1.70;0.93;;;13.70;79.80;;;;;;5053464;28;20359;-67
2022/06/09 07:01:05;;;;;;;1.63;0.75;;;13.60;79.70;;;;;;5050403;28;20025;-66
2022/06/09 07:03:32;;;;;;;5.80;2.67;;;13.60;80.10;;;;;;5053167;28;20507;-70
2022/06/09 07:06:00;;;;;;;3.25;1.40;;;13.50;80.40;;;;;;5043279;28;20040;-70
2022/06/09 07:08:27;;;;;;;0.70;0.60;;;13.50;80.50;;;;;;5051529;28;20075;-65
2022/06/09 07:10:56;;;;;;;1.40;0.90;;;13.40;80.70;;;;;;5033840;28;20029;-67
2022/06/09 07:13:24;;;;;;;0.73;0.60;;;13.40;80.80;;;;;;5033487;28;20470;-68
2022/06/09 07:15:51;;;;;;;1.45;0.45;;;13.40;81.10;;;;;;5033018;28;20037;-69
2022/06/09 07:18:18;;;;;;;3.65;1.90;;;13.20;81.30;;;;;;5033281;28;20546;-71
2022/06/09 07:20:46;;;;;;;9.30;5.82;;;13.20;81.80;;;;;;5044074;28;20025;-67
2022/06/09 07:23:14;;;;;;;3.42;1.92;;;13.10;82.10;;;;;;5033363;28;20060;-69
2022/06/09 07:25:41;;;;;;;9.30;8.30;;;13.10;82.50;;;;;;5033102;28;20025;-73
2022/06/09 07:28:08;;;;;;;2.72;1.48;;;13.00;82.60;;;;;;5032681;28;20036;-71
2022/06/09 07:30:36;;;;;;;10.18;5.07;;;13.00;82.90;;;;;;5044738;28;20014;-72
2022/06/09 07:33:03;;;;;;;1.92;1.55;;;12.90;83.00;;;;;;5033674;28;20766;-68
2022/06/09 07:35:32;;;;;;;2.35;1.52;;;12.90;83.30;;;;;;5031151;28;20055;-71
2022/06/09 07:38:00;;;;;;;2.42;0.85;;;12.80;83.70;;;;;;5032693;28;20037;-68
2022/06/09 07:40:27;;;;;;;3.03;1.73;;;12.80;83.80;;;;;;5042510;28;20025;-73
2022/06/09 07:42:55;;;;;;;2.05;1.20;;;12.70;84.00;;;;;;5050806;28;20016;-70
2022/06/09 07:45:23;;;;;;;1.40;0.93;;;12.80;84.00;;;;;;5030765;28;20052;-72
2022/06/09 07:47:50;;;;;;;1.88;0.60;;;12.70;84.40;;;;;;5032441;28;20467;-67
2022/06/09 07:50:18;;;;;;;2.97;1.65;;;12.70;84.50;;;;;;5035175;28;20026;-74
2022/06/09 07:52:46;;;;;;;2.80;1.13;;;12.70;84.50;;;;;;5053030;28;20021;-73
2022/06/09 07:55:16;;;;;;;1.92;0.80;;;12.60;84.80;;;;;;5050183;28;20043;-72
2022/06/09 07:57:44;;;;;;;2.40;1.05;;;12.60;85.30;;;;;;5031944;28;20025;-74
2022/06/09 08:00:14;;;;;;;2.88;1.10;;;12.50;85.10;;;;;;5033014;28;20029;-69
2022/06/09 08:02:43;;;;;;;1.90;0.95;;;12.50;85.30;;;;;;5031138;28;20025;-70
2022/06/09 08:05:11;;;;;;;1.77;1.30;;;12.40;85.60;;;;;;5028385;28;20036;-74
2022/06/09 08:07:38;;;;;;;8.05;6.45;;;12.40;85.80;;;;;;5033085;28;20048;-71
2022/06/09 08:10:06;;;;;;;16.38;12.52;;;12.30;85.80;;;;;;5033424;28;20049;-67
2022/06/09 08:12:34;;;;;;;5.07;4.38;;;12.30;86.60;;;;;;5032188;28;20047;-67
2022/06/09 08:15:03;;;;;;;4.60;2.13;;;12.30;86.20;;;;;;5030630;28;20033;-68
2022/06/09 08:17:30;;;;;;;10.15;8.77;;;12.30;86.00;;;;;;5031010;28;20026;-72
2022/06/09 08:19:57;;;;;;;3.30;2.38;;;12.30;86.00;;;;;;5028838;28;20026;-68
2022/06/09 08:22:25;;;;;;;10.32;5.63;;;12.30;85.90;;;;;;5039829;28;20017;-72
2022/06/09 08:24:52;;;;;;;2.35;0.95;;;12.30;86.40;;;;;;5048008;28;20033;-70
2022/06/09 08:27:20;;;;;;;4.88;1.70;;;12.30;85.90;;;;;;5031121;28;20032;-73
2022/06/09 08:29:47;;;;;;;5.57;2.50;;;12.20;86.80;;;;;;5031408;28;20478;-68
2022/06/09 08:32:14;;;;;;;4.25;1.50;;;12.20;86.30;;;;;;5031159;28;20028;-70
2022/06/09 08:34:42;;;;;;;4.78;1.85;;;12.20;86.50;;;;;;5048640;28;20025;-65
2022/06/09 08:37:09;;;;;;;3.58;2.05;;;12.10;86.80;;;;;;5034537;28;20102;-71
2022/06/09 08:39:37;;;;;;;2.65;1.88;;;12.10;86.90;;;;;;5042465;28;20032;-69
2022/06/09 08:42:04;;;;;;;5.55;2.35;;;12.00;86.90;;;;;;5029633;28;20421;-74
2022/06/09 08:45:02;;;;;;;1.70;0.90;;;12.10;87.50;;;;;;5042835;28;20386;-68
2022/06/09 08:47:53;;;;;;;3.00;1.80;;;12.10;87.00;;;;;;5018054;28;20470;-67
2022/06/09 08:50:53;;;;;;;4.63;2.70;;;12.10;87.10;;;;;;5030451;28;20555;-70
2022/06/09 08:53:46;;;;;;;3.70;2.38;;;12.10;86.90;;;;;;5044861;28;20045;-73
2022/06/09 08:56:19;;;;;;;2.58;1.98;;;12.10;87.10;;;;;;5036173;28;20056;-70
2022/06/09 08:58:53;;;;;;;1.17;0.80;;;12.10;87.00;;;;;;5048542;28;20038;-71
2022/06/09 09:01:28;;;;;;;2.05;1.50;;;12.00;87.10;;;;;;5028215;28;20381;-67
2022/06/09 09:04:11;;;;;;;10.50;5.38;;;12.10;87.40;;;;;;5034905;28;20021;-65
2022/06/09 09:06:48;;;;;;;15.32;10.20;;;12.00;87.60;;;;;;5031500;28;20013;-71
2022/06/09 09:09:26;;;;;;;2.22;1.63;;;12.00;87.60;;;;;;5037051;28;20032;-67
2022/06/09 09:12:22;;;;;;;3.55;2.25;;;12.00;87.60;;;;;;5029909;28;20028;-70
2022/06/09 09:15:22;;;;;;;1.33;0.85;;;12.00;87.90;;;;;;5036641;28;20037;-67
2022/06/09 09:18:10;;;;;;;0.85;0.70;;;12.00;88.20;;;;;;5029230;28;20029;-73
2022/06/09 09:21:27;;;;;;;1.27;0.80;;;11.90;88.20;;;;;;5030496;28;20017;-73
2022/06/09 09:23:59;;;;;;;1.17;0.80;;;11.90;88.40;;;;;;5038727;28;20068;-70
2022/06/09 09:27:00;;;;;;;1.98;1.20;;;11.90;88.70;;;;;;5036685;28;20033;-69
2022/06/09 09:29:47;;;;;;;3.85;1.33;;;11.80;88.80;;;;;;5040782;28;20033;-69
2022/06/09 09:32:24;;;;;;;3.85;1.50;;;11.80;88.80;;;;;;5039860;28;20436;-73
2022/06/09 09:34:53;;;;;;;2.47;1.25;;;11.80;88.80;;;;;;5049391;28;20037;-70
2022/06/09 09:37:45;;;;;;;2.20;1.13;;;11.70;89.10;;;;;;5045526;28;20025;-72
2022/06/09 09:40:35;;;;;;;3.45;1.55;;;11.80;88.50;;;;;;5034184;28;20049;-72
2022/06/09 09:43:08;;;;;;;2.28;1.10;;;11.70;89.00;;;;;;5040583;28;20033;-70
2022/06/09 09:45:43;;;;;;;2.53;1.30;;;11.70;88.90;;;;;;5039367;28;20021;-74
2022/06/09 09:48:20;;;;;;;1.45;0.98;;;11.60;89.10;;;;;;5039003;28;20473;-72
2022/06/09 09:50:49;;;;;;;2.50;1.30;;;11.60;89.40;;;;;;5041462;28;20032;-66
2022/06/09 09:53:19;;;;;;;2.30;1.13;;;11.60;89.60;;;;;;5042142;28;20136;-72
2022/06/09 09:55:58;;;;;;;9.50;6.65;;;11.50;89.80;;;;;;5041554;28;20168;-69
2022/06/09 09:58:33;;;;;;;5.07;3.47;;;11.50;89.90;;;;;;5047841;28;20021;-69
2022/06/09 10:01:05;;;;;;;2.50;1.52;;;11.50;90.00;;;;;;5041173;28;20155;-65
2022/06/09 10:09:37;;;;;;;1.58;0.90;;;11.40;90.10;;;;;;5043461;28;20090;-70
2022/06/09 10:12:29;;;;;;;2.55;1.70;;;11.40;90.10;;;;;;5047900;28;20033;-78
2022/06/09 10:15:11;;;;;;;3.50;1.33;;;11.40;90.20;;;;;;5049679;28;20021;-76
2022/06/09 10:18:01;;;;;;;2.50;1.90;;;11.30;90.30;;;;;;5030644;28;20025;-73
2022/06/09 10:20:43;;;;;;;2.63;1.30;;;11.30;90.40;;;;;;5030721;28;20025;-75
2022/06/09 10:23:10;;;;;;;3.40;1.92;;;11.30;90.60;;;;;;5041069;28;20470;-73
2022/06/09 10:25:43;;;;;;;2.47;1.73;;;11.30;90.70;;;;;;5043263;28;20054;-76
2022/06/09 10:28:33;;;;;;;2.53;1.60;;;11.20;90.70;;;;;;5030586;28;20029;-70
2022/06/09 10:31:13;;;;;;;3.92;2.33;;;11.20;90.80;;;;;;5037312;28;20509;-66
2022/06/09 10:34:12;;;;;;;4.10;2.10;;;11.20;91.00;;;;;;5050488;28;20071;-70
2022/06/09 10:36:55;;;;;;;4.57;1.85;;;11.20;90.90;;;;;;5048318;28;20094;-73
2022/06/09 10:39:57;;;;;;;2.28;1.65;;;11.10;91.00;;;;;;5033107;28;20025;-67
2022/06/09 10:42:25;;;;;;;3.78;2.42;;;11.10;91.20;;;;;;5043654;28;20120;-75
2022/06/09 10:45:04;;;;;;;2.65;1.10;;;11.10;91.20;;;;;;5025330;28;20087;-67
2022/06/09 10:57:25;;;;;;;2.10;1.60;;;11.20;91.30;;;;;;5024295;28;20044;-72
2022/06/09 11:00:01;;;;;;;1.20;0.88;;;11.10;91.50;;;;;;5030419;28;20029;-74
2022/06/09 11:02:32;;;;;;;3.40;0.98;;;11.20;91.50;;;;;;5026894;28;20021;-70
2022/06/09 11:05:01;;;;;;;2.55;1.58;;;11.20;91.60;;;;;;5032977;28;20098;-77
2022/06/09 11:07:47;;;;;;;3.78;2.33;;;11.10;91.60;;;;;;5029518;28;20478;-70
2022/06/09 11:10:20;;;;;;;2.53;1.80;;;11.10;91.70;;;;;;5033778;28;20123;-71
2022/06/09 11:13:12;;;;;;;2.30;1.10;;;11.10;91.70;;;;;;5033538;28;20049;-74
2022/06/09 11:16:22;;;;;;;2.50;1.13;;;11.20;91.70;;;;;;5033874;28;20673;-74
2022/06/09 11:19:01;;;;;;;1.48;0.80;;;11.10;91.70;;;;;;5041545;28;20056;-67
2022/06/09 11:21:53;;;;;;;2.33;1.00;;;11.10;91.80;;;;;;5032555;28;20494;-67
2022/06/09 11:24:34;;;;;;;2.33;0.75;;;11.00;91.90;;;;;;5029967;28;20036;-75
2022/06/09 11:27:23;;;;;;;2.30;0.80;;;11.00;91.90;;;;;;5033262;28;20427;-75
2022/06/09 11:30:03;;;;;;;1.60;0.80;;;11.00;92.00;;;;;;5033893;28;20025;-68
2022/06/09 11:32:38;;;;;;;1.17;0.70;;;10.90;92.20;;;;;;5032256;28;20021;-74
2022/06/09 11:35:39;;;;;;;1.60;0.88;;;10.90;92.10;;;;;;5033935;28;20362;-73
2022/06/09 11:38:19;;;;;;;1.48;0.68;;;10.90;92.10;;;;;;5033635;28;20022;-65
2022/06/09 11:41:09;;;;;;;2.97;1.00;;;11.00;92.10;;;;;;5030582;28;20022;-65
2022/06/09 11:43:44;;;;;;;1.85;0.93;;;11.00;92.30;;;;;;5032777;28;20022;-72
2022/06/09 11:46:23;;;;;;;1.10;0.82;;;10.90;92.30;;;;;;5035514;28;20036;-67
2022/06/09 11:48:56;;;;;;;2.45;1.00;;;10.90;92.40;;;;;;5032981;28;20036;-64
2022/06/09 11:51:26;;;;;;;3.05;1.45;;;10.80;92.40;;;;;;5034732;28;20030;-69
2022/06/09 11:54:04;;;;;;;2.67;1.25;;;10.80;92.40;;;;;;5032905;28;20044;-75
2022/06/09 11:56:43;;;;;;;3.03;1.50;;;10.80;92.80;;;;;;5031522;28;20021;-72
2022/06/09 11:59:13;;;;;;;2.80;1.42;;;10.70;92.50;;;;;;5035087;28;20389;-70
2022/06/09 12:01:40;;;;;;;2.50;1.23;;;10.70;92.60;;;;;;5029657;28;20057;-68
2022/06/09 12:04:48;;;;;;;3.95;1.50;;;10.70;92.70;;;;;;5032335;28;20081;-69
2022/06/09 12:07:47;;;;;;;3.95;1.90;;;10.60;92.70;;;;;;5031938;28;20068;-70
2022/06/09 12:10:45;;;;;;;3.38;1.95;;;10.60;93.10;;;;;;5028455;28;20044;-72
2022/06/09 12:13:23;;;;;;;4.97;2.20;;;10.50;92.70;;;;;;5032403;28;20496;-69
2022/06/09 12:16:04;;;;;;;3.78;1.67;;;10.50;92.80;;;;;;5029741;28;20120;-72
2022/06/09 12:18:59;;;;;;;4.32;1.90;;;10.40;93.00;;;;;;5029346;28;20382;-71
2022/06/09 12:21:31;;;;;;;4.15;2.00;;;10.40;93.10;;;;;;5029212;28;20040;-69
2022/06/09 12:24:02;;;;;;;3.45;1.58;;;10.40;93.40;;;;;;5039164;28;20068;-70
2022/06/09 12:26:55;;;;;;;2.35;1.63;;;10.40;93.30;;;;;;5032003;28;20045;-74
2022/06/09 12:29:41;;;;;;;3.40;1.60;;;10.40;93.30;;;;;;5041390;28;20052;-72
2022/06/09 12:32:08;;;;;;;4.35;3.00;;;10.40;93.40;;;;;;5030613;28;20049;-73
2022/06/09 12:34:51;;;;;;;5.10;3.17;;;10.30;93.40;;;;;;5033029;28;20053;-74
2022/06/09 12:37:24;;;;;;;4.68;2.28;;;10.30;93.70;;;;;;5032906;28;20445;-74
2022/06/09 12:40:06;;;;;;;2.35;1.30;;;10.30;93.60;;;;;;5040636;28;20025;-74
2022/06/09 12:42:42;;;;;;;3.97;1.90;;;10.20;93.70;;;;;;5036884;28;20060;-70
2022/06/09 12:45:36;;;;;;;2.30;1.48;;;10.30;93.60;;;;;;5032682;28;20075;-66
2022/06/09 12:48:10;;;;;;;3.88;1.33;;;10.40;93.60;;;;;;5031509;28;20338;-76
2022/06/09 12:50:51;;;;;;;2.83;1.60;;;10.30;93.60;;;;;;5046478;28;20029;-75
2022/06/09 12:53:38;;;;;;;3.83;2.05;;;10.40;93.70;;;;;;5032490;28;20042;-73
2022/06/09 12:56:27;;;;;;;2.55;1.85;;;10.40;93.70;;;;;;5032890;28;20033;-71
2022/06/09 12:58:56;;;;;;;4.00;1.50;;;10.40;93.80;;;;;;5049186;28;20032;-70
2022/06/09 13:01:28;;;;;;;2.00;1.20;;;10.40;93.90;;;;;;5017983;28;20017;-73
2022/06/09 13:04:00;;;;;;;2.33;1.05;;;10.30;94.00;;;;;;5032287;28;20482;-74
2022/06/09 13:06:31;;;;;;;1.73;1.02;;;10.30;94.00;;;;;;5032456;28;20397;-71
2022/06/09 13:09:16;;;;;;;2.80;1.10;;;10.40;94.00;;;;;;5047691;28;20028;-74
2022/06/09 13:14:37;;;;;;;1.70;0.98;;;10.30;94.10;;;;;;5052412;28;20024;-73
2022/06/09 13:17:19;;;;;;;2.05;1.08;;;10.30;94.20;;;;;;5052132;28;20047;-76
2022/06/09 13:20:02;;;;;;;2.25;0.88;;;10.30;94.30;;;;;;5051842;28;20029;-74
2022/06/09 13:22:30;;;;;;;2.08;1.23;;;10.30;94.40;;;;;;5037442;28;20564;-74
2022/06/09 13:24:58;;;;;;;1.85;0.93;;;10.30;94.40;;;;;;5051200;28;20040;-70
2022/06/09 13:27:30;;;;;;;0.98;0.73;;;10.30;94.50;;;;;;5051908;28;20090;-71
2022/06/09 13:30:09;;;;;;;1.20;0.63;;;10.20;94.70;;;;;;5052154;28;20366;-74
2022/06/09 13:32:46;;;;;;;1.75;0.70;;;10.30;94.50;;;;;;5036055;28;20378;-70
2022/06/09 13:35:40;;;;;;;1.55;0.60;;;10.30;94.60;;;;;;5032134;28;20584;-73
2022/06/09 13:38:31;;;;;;;1.35;0.60;;;10.30;94.70;;;;;;5045758;28;20342;-77
2022/06/09 13:41:29;;;;;;;2.15;0.70;;;10.30;94.70;;;;;;5049583;28;20064;-73
2022/06/09 13:44:05;;;;;;;1.67;0.60;;;10.30;94.70;;;;;;5047054;28;20491;-72
2022/06/09 13:46:39;;;;;;;1.45;0.63;;;10.30;94.60;;;;;;5051817;28;20039;-70